sensor_id;sensor_type;location;lat;lon;timestamp;pressure;altitude;pressure_sealevel;temperature;humidity
63006;BME280;53704;52.532;6.426;2023-06-05T00:01:10;102369.66;;;9.89;100.00
63006;BME280;53704;52.532;6.426;2023-06-05T00:03:36;102357.81;;;9.92;100.00
63006;BME280;53704;52.532;6.426;2023-06-05T00:06:03;102361.94;;;9.96;100.00
63006;BME280;53704;52.532;6.426;2023-06-05T00:08:28;102366.84;;;9.91;100.00
63006;BME280;53704;52.532;6.426;2023-06-05T00:10:53;102368.69;;;9.79;100.00
63006;BME280;53704;52.532;6.426;2023-06-05T00:13:19;102364.75;;;9.83;100.00
63006;BME280;53704;52.532;6.426;2023-06-05T00:15:44;102371.25;;;9.81;100.00
63006;BME280;53704;52.532;6.426;2023-06-05T00:18:10;102373.19;;;9.67;100.00
63006;BME280;53704;52.532;6.426;2023-06-05T00:20:37;102363.66;;;9.74;100.00
63006;BME280;53704;52.532;6.426;2023-06-05T00:23:02;102361.09;;;9.62;100.00
63006;BME280;53704;52.532;6.426;2023-06-05T00:25:27;102365.94;;;9.56;100.00
63006;BME280;53704;52.532;6.426;2023-06-05T00:27:53;102364.38;;;9.54;100.00
63006;BME280;53704;52.532;6.426;2023-06-05T00:30:18;102359.97;;;9.53;100.00
63006;BME280;53704;52.532;6.426;2023-06-05T00:32:44;102361.03;;;9.50;100.00
63006;BME280;53704;52.532;6.426;2023-06-05T00:35:10;102360.31;;;9.48;100.00
63006;BME280;53704;52.532;6.426;2023-06-05T00:37:35;102359.22;;;9.51;100.00
63006;BME280;53704;52.532;6.426;2023-06-05T00:40:03;102361.91;;;9.51;100.00
63006;BME280;53704;52.532;6.426;2023-06-05T00:42:28;102363.13;;;9.47;100.00
63006;BME280;53704;52.532;6.426;2023-06-05T00:44:54;102355.53;;;9.52;100.00
63006;BME280;53704;52.532;6.426;2023-06-05T00:47:20;102355.94;;;9.47;100.00
63006;BME280;53704;52.532;6.426;2023-06-05T00:49:45;102358.72;;;9.46;100.00
63006;BME280;53704;52.532;6.426;2023-06-05T00:52:11;102359.22;;;9.39;100.00
63006;BME280;53704;52.532;6.426;2023-06-05T00:54:37;102349.78;;;9.45;100.00
63006;BME280;53704;52.532;6.426;2023-06-05T00:57:03;102356.63;;;9.38;100.00
63006;BME280;53704;52.532;6.426;2023-06-05T00:59:31;102358.09;;;9.42;100.00
63006;BME280;53704;52.532;6.426;2023-06-05T01:01:58;102357.47;;;9.27;100.00
63006;BME280;53704;52.532;6.426;2023-06-05T01:04:24;102351.16;;;9.51;100.00
63006;BME280;53704;52.532;6.426;2023-06-05T01:06:52;102355.03;;;9.35;100.00
63006;BME280;53704;52.532;6.426;2023-06-05T01:09:18;102358.44;;;9.37;100.00
63006;BME280;53704;52.532;6.426;2023-06-05T01:11:52;102352.59;;;9.44;100.00
63006;BME280;53704;52.532;6.426;2023-06-05T01:14:21;102355.81;;;9.60;100.00
63006;BME280;53704;52.532;6.426;2023-06-05T01:16:49;102355.06;;;9.47;100.00
63006;BME280;53704;52.532;6.426;2023-06-05T01:19:18;102356.44;;;9.17;100.00
63006;BME280;53704;52.532;6.426;2023-06-05T01:21:45;102348.50;;;9.15;100.00
63006;BME280;53704;52.532;6.426;2023-06-05T01:24:10;102347.19;;;9.21;100.00
63006;BME280;53704;52.532;6.426;2023-06-05T01:32:11;102343.88;;;9.17;100.00
63006;BME280;53704;52.532;6.426;2023-06-05T01:34:42;102349.56;;;9.01;100.00
63006;BME280;53704;52.532;6.426;2023-06-05T01:37:10;102345.28;;;8.99;100.00
63006;BME280;53704;52.532;6.426;2023-06-05T01:39:41;102337.84;;;9.14;100.00
63006;BME280;53704;52.532;6.426;2023-06-05T01:42:09;102351.84;;;8.95;100.00
63006;BME280;53704;52.532;6.426;2023-06-05T01:44:35;102350.88;;;8.96;100.00
63006;BME280;53704;52.532;6.426;2023-06-05T01:47:01;102354.75;;;8.92;100.00
63006;BME280;53704;52.532;6.426;2023-06-05T01:49:27;102345.63;;;8.94;100.00
63006;BME280;53704;52.532;6.426;2023-06-05T01:51:52;102341.63;;;8.76;100.00
63006;BME280;53704;52.532;6.426;2023-06-05T01:54:20;102333.06;;;8.71;100.00
63006;BME280;53704;52.532;6.426;2023-06-05T01:56:48;102340.28;;;8.70;100.00
63006;BME280;53704;52.532;6.426;2023-06-05T01:59:14;102335.63;;;8.72;100.00
63006;BME280;53704;52.532;6.426;2023-06-05T02:01:41;102337.59;;;8.70;100.00
63006;BME280;53704;52.532;6.426;2023-06-05T02:04:10;102337.34;;;8.73;100.00
63006;BME280;53704;52.532;6.426;2023-06-05T02:06:35;102331.47;;;8.92;100.00
63006;BME280;53704;52.532;6.426;2023-06-05T02:09:07;102328.44;;;8.97;100.00
63006;BME280;53704;52.532;6.426;2023-06-05T02:11:34;102322.38;;;8.82;100.00
63006;BME280;53704;52.532;6.426;2023-06-05T02:14:05;102325.63;;;8.74;100.00
63006;BME280;53704;52.532;6.426;2023-06-05T02:16:37;102325.06;;;8.58;100.00
63006;BME280;53704;52.532;6.426;2023-06-05T02:19:03;102325.84;;;8.71;100.00
63006;BME280;53704;52.532;6.426;2023-06-05T02:21:32;102317.88;;;8.58;100.00
63006;BME280;53704;52.532;6.426;2023-06-05T02:24:02;102325.47;;;8.64;100.00
63006;BME280;53704;52.532;6.426;2023-06-05T02:26:28;102321.41;;;8.59;100.00
63006;BME280;53704;52.532;6.426;2023-06-05T02:28:53;102321.06;;;8.87;100.00
63006;BME280;53704;52.532;6.426;2023-06-05T02:31:23;102325.28;;;8.79;100.00
63006;BME280;53704;52.532;6.426;2023-06-05T02:33:52;102326.19;;;8.66;100.00
63006;BME280;53704;52.532;6.426;2023-06-05T02:36:19;102318.50;;;8.62;100.00
63006;BME280;53704;52.532;6.426;2023-06-05T02:38:45;102311.81;;;8.67;100.00
63006;BME280;53704;52.532;6.426;2023-06-05T02:41:10;102313.59;;;8.43;100.00
63006;BME280;53704;52.532;6.426;2023-06-05T02:43:36;102310.81;;;8.44;100.00
63006;BME280;53704;52.532;6.426;2023-06-05T02:46:01;102310.16;;;8.41;100.00
63006;BME280;53704;52.532;6.426;2023-06-05T02:48:27;102306.66;;;8.40;100.00
63006;BME280;53704;52.532;6.426;2023-06-05T02:50:52;102321.59;;;8.31;100.00
63006;BME280;53704;52.532;6.426;2023-06-05T02:53:18;102318.22;;;8.41;100.00
63006;BME280;53704;52.532;6.426;2023-06-05T02:55:43;102311.47;;;8.48;100.00
63006;BME280;53704;52.532;6.426;2023-06-05T02:58:09;102313.84;;;8.40;100.00
63006;BME280;53704;52.532;6.426;2023-06-05T03:00:38;102309.22;;;8.42;100.00
63006;BME280;53704;52.532;6.426;2023-06-05T03:03:04;102306.66;;;8.40;100.00
63006;BME280;53704;52.532;6.426;2023-06-05T03:05:31;102303.22;;;8.38;100.00
63006;BME280;53704;52.532;6.426;2023-06-05T03:07:57;102313.63;;;8.30;100.00
63006;BME280;53704;52.532;6.426;2023-06-05T03:10:22;102303.78;;;8.30;100.00
63006;BME280;53704;52.532;6.426;2023-06-05T03:12:48;102309.38;;;8.27;100.00
63006;BME280;53704;52.532;6.426;2023-06-05T03:15:14;102304.84;;;8.28;100.00
63006;BME280;53704;52.532;6.426;2023-06-05T03:17:41;102313.13;;;8.25;100.00
63006;BME280;53704;52.532;6.426;2023-06-05T03:20:07;102300.03;;;8.20;100.00
63006;BME280;53704;52.532;6.426;2023-06-05T03:22:35;102303.72;;;8.19;100.00
63006;BME280;53704;52.532;6.426;2023-06-05T03:25:00;102289.16;;;8.34;100.00
63006;BME280;53704;52.532;6.426;2023-06-05T03:27:26;102299.75;;;8.12;100.00
63006;BME280;53704;52.532;6.426;2023-06-05T03:29:51;102296.53;;;8.20;100.00
63006;BME280;53704;52.532;6.426;2023-06-05T03:32:17;102297.13;;;8.23;100.00
63006;BME280;53704;52.532;6.426;2023-06-05T03:34:42;102297.06;;;8.12;100.00
63006;BME280;53704;52.532;6.426;2023-06-05T03:37:08;102293.72;;;8.21;100.00
63006;BME280;53704;52.532;6.426;2023-06-05T03:39:34;102293.56;;;8.36;100.00
63006;BME280;53704;52.532;6.426;2023-06-05T03:42:00;102297.13;;;8.23;100.00
63006;BME280;53704;52.532;6.426;2023-06-05T03:44:26;102290.19;;;8.21;100.00
63006;BME280;53704;52.532;6.426;2023-06-05T03:46:51;102294.16;;;8.15;100.00
63006;BME280;53704;52.532;6.426;2023-06-05T03:49:17;102293.22;;;8.16;100.00
63006;BME280;53704;52.532;6.426;2023-06-05T03:51:43;102301.94;;;8.07;100.00
63006;BME280;53704;52.532;6.426;2023-06-05T03:54:10;102292.44;;;8.14;100.00
63006;BME280;53704;52.532;6.426;2023-06-05T03:56:35;102286.22;;;8.13;100.00
63006;BME280;53704;52.532;6.426;2023-06-05T03:59:04;102300.16;;;8.19;100.00
63006;BME280;53704;52.532;6.426;2023-06-05T04:01:44;102288.03;;;8.26;100.00
63006;BME280;53704;52.532;6.426;2023-06-05T04:04:09;102300.72;;;8.11;100.00
63006;BME280;53704;52.532;6.426;2023-06-05T04:06:35;102302.59;;;7.97;100.00
63006;BME280;53704;52.532;6.426;2023-06-05T04:09:02;102301.09;;;7.93;100.00
63006;BME280;53704;52.532;6.426;2023-06-05T04:11:34;102302.78;;;8.07;100.00
63006;BME280;53704;52.532;6.426;2023-06-05T04:13:59;102305.56;;;8.06;100.00
63006;BME280;53704;52.532;6.426;2023-06-05T04:16:25;102302.88;;;8.06;100.00
63006;BME280;53704;52.532;6.426;2023-06-05T04:18:50;102300.72;;;8.11;100.00
63006;BME280;53704;52.532;6.426;2023-06-05T04:21:16;102304.06;;;8.14;100.00
63006;BME280;53704;52.532;6.426;2023-06-05T04:23:41;102304.56;;;8.20;100.00
63006;BME280;53704;52.532;6.426;2023-06-05T04:26:07;102296.91;;;8.26;100.00
63006;BME280;53704;52.532;6.426;2023-06-05T04:28:32;102297.03;;;8.25;100.00
63006;BME280;53704;52.532;6.426;2023-06-05T04:30:59;102297.03;;;8.25;100.00
63006;BME280;53704;52.532;6.426;2023-06-05T04:33:24;102293.91;;;8.31;100.00
63006;BME280;53704;52.532;6.426;2023-06-05T04:35:50;102303.31;;;8.49;100.00
63006;BME280;53704;52.532;6.426;2023-06-05T04:38:15;102297.41;;;8.44;100.00
63006;BME280;53704;52.532;6.426;2023-06-05T04:40:46;102297.84;;;8.51;100.00
63006;BME280;53704;52.532;6.426;2023-06-05T04:43:13;102306.50;;;8.55;100.00
63006;BME280;53704;52.532;6.426;2023-06-05T04:45:39;102307.88;;;8.60;100.00
63006;BME280;53704;52.532;6.426;2023-06-05T04:48:05;102303.94;;;8.53;100.00
63006;BME280;53704;52.532;6.426;2023-06-05T04:50:31;102302.97;;;8.54;100.00
63006;BME280;53704;52.532;6.426;2023-06-05T04:52:59;102312.53;;;8.69;100.00
63006;BME280;53704;52.532;6.426;2023-06-05T04:55:24;102313.75;;;8.65;100.00
63006;BME280;53704;52.532;6.426;2023-06-05T04:57:50;102320.59;;;8.69;100.00
63006;BME280;53704;52.532;6.426;2023-06-05T05:00:16;102311.59;;;8.71;100.00
63006;BME280;53704;52.532;6.426;2023-06-05T05:02:41;102312.84;;;8.78;100.00
63006;BME280;53704;52.532;6.426;2023-06-05T05:05:07;102319.69;;;8.82;100.00
63006;BME280;53704;52.532;6.426;2023-06-05T05:07:33;102314.47;;;8.92;100.00
63006;BME280;53704;52.532;6.426;2023-06-05T05:10:00;102315.56;;;8.89;100.00
63006;BME280;53704;52.532;6.426;2023-06-05T05:12:26;102311.97;;;9.01;100.00
63006;BME280;53704;52.532;6.426;2023-06-05T05:14:51;102313.91;;;9.11;100.00
63006;BME280;53704;52.532;6.426;2023-06-05T05:17:17;102306.84;;;9.10;100.00
63006;BME280;53704;52.532;6.426;2023-06-05T05:19:45;102311.75;;;9.16;100.00
63006;BME280;53704;52.532;6.426;2023-06-05T05:22:10;102313.22;;;9.20;100.00
63006;BME280;53704;52.532;6.426;2023-06-05T05:24:36;102315.91;;;9.31;100.00
63006;BME280;53704;52.532;6.426;2023-06-05T05:27:02;102316.41;;;9.25;100.00
63006;BME280;53704;52.532;6.426;2023-06-05T05:29:27;102318.88;;;9.39;100.00
63006;BME280;53704;52.532;6.426;2023-06-05T05:31:53;102318.16;;;9.49;100.00
63006;BME280;53704;52.532;6.426;2023-06-05T05:34:18;102316.22;;;9.51;100.00
63006;BME280;53704;52.532;6.426;2023-06-05T05:36:44;102313.88;;;9.57;100.00
63006;BME280;53704;52.532;6.426;2023-06-05T05:39:09;102310.84;;;9.62;100.00
63006;BME280;53704;52.532;6.426;2023-06-05T05:41:35;102325.50;;;9.69;100.00
63006;BME280;53704;52.532;6.426;2023-06-05T05:44:00;102318.66;;;9.76;100.00
63006;BME280;53704;52.532;6.426;2023-06-05T05:46:26;102323.44;;;9.84;100.00
63006;BME280;53704;52.532;6.426;2023-06-05T05:48:51;102319.91;;;9.95;100.00
63006;BME280;53704;52.532;6.426;2023-06-05T05:51:17;102321.47;;;9.98;100.00
63006;BME280;53704;52.532;6.426;2023-06-05T05:53:42;102312.66;;;10.07;100.00
63006;BME280;53704;52.532;6.426;2023-06-05T05:56:08;102319.13;;;10.16;100.00
63006;BME280;53704;52.532;6.426;2023-06-05T05:58:33;102326.72;;;10.22;100.00
63006;BME280;53704;52.532;6.426;2023-06-05T06:00:59;102326.94;;;10.30;100.00
63006;BME280;53704;52.532;6.426;2023-06-05T06:03:25;102330.13;;;10.35;100.00
63006;BME280;53704;52.532;6.426;2023-06-05T06:05:54;102322.66;;;10.39;100.00
63006;BME280;53704;52.532;6.426;2023-06-05T06:08:19;102328.50;;;10.55;100.00
63006;BME280;53704;52.532;6.426;2023-06-05T06:10:46;102324.69;;;10.58;100.00
63006;BME280;53704;52.532;6.426;2023-06-05T06:13:12;102329.53;;;10.75;100.00
63006;BME280;53704;52.532;6.426;2023-06-05T06:15:38;102318.50;;;10.78;100.00
63006;BME280;53704;52.532;6.426;2023-06-05T06:18:07;102320.22;;;10.79;100.00
63006;BME280;53704;52.532;6.426;2023-06-05T06:20:33;102331.31;;;10.86;100.00
63006;BME280;53704;52.532;6.426;2023-06-05T06:22:59;102325.53;;;10.91;100.00
63006;BME280;53704;52.532;6.426;2023-06-05T06:25:24;102331.69;;;10.93;100.00
63006;BME280;53704;52.532;6.426;2023-06-05T06:27:54;102335.09;;;10.95;100.00
63006;BME280;53704;52.532;6.426;2023-06-05T06:30:20;102332.34;;;11.06;100.00
63006;BME280;53704;52.532;6.426;2023-06-05T06:32:47;102321.03;;;11.12;100.00
63006;BME280;53704;52.532;6.426;2023-06-05T06:35:13;102327.06;;;11.26;100.00
63006;BME280;53704;52.532;6.426;2023-06-05T06:37:40;102320.31;;;11.31;100.00
63006;BME280;53704;52.532;6.426;2023-06-05T06:40:06;102324.03;;;11.40;100.00
63006;BME280;53704;52.532;6.426;2023-06-05T06:42:36;102330.31;;;11.40;100.00
63006;BME280;53704;52.532;6.426;2023-06-05T06:45:02;102324.03;;;11.40;100.00
63006;BME280;53704;52.532;6.426;2023-06-05T06:47:29;102326.69;;;11.51;100.00
63006;BME280;53704;52.532;6.426;2023-06-05T06:49:55;102325.09;;;11.49;100.00
63006;BME280;53704;52.532;6.426;2023-06-05T06:52:22;102324.88;;;11.62;100.00
63006;BME280;53704;52.532;6.426;2023-06-05T06:54:48;102322.28;;;11.81;100.00
63006;BME280;53704;52.532;6.426;2023-06-05T06:57:13;102327.13;;;11.87;100.00
63006;BME280;53704;52.532;6.426;2023-06-05T06:59:39;102324.28;;;11.89;100.00
63006;BME280;53704;52.532;6.426;2023-06-05T07:02:12;102327.78;;;12.01;100.00
63006;BME280;53704;52.532;6.426;2023-06-05T07:04:39;102325.41;;;12.17;100.00
63006;BME280;53704;52.532;6.426;2023-06-05T07:07:08;102335.09;;;12.10;100.00
63006;BME280;53704;52.532;6.426;2023-06-05T07:09:33;102331.72;;;12.27;100.00
63006;BME280;53704;52.532;6.426;2023-06-05T07:11:59;102331.75;;;12.47;100.00
63006;BME280;53704;52.532;6.426;2023-06-05T07:14:30;102324.38;;;12.59;100.00
63006;BME280;53704;52.532;6.426;2023-06-05T07:16:55;102315.88;;;12.73;100.00
63006;BME280;53704;52.532;6.426;2023-06-05T07:19:23;102338.31;;;12.83;100.00
63006;BME280;53704;52.532;6.426;2023-06-05T07:21:49;102327.97;;;12.98;100.00
63006;BME280;53704;52.532;6.426;2023-06-05T07:24:15;102322.97;;;13.03;100.00
63006;BME280;53704;52.532;6.426;2023-06-05T07:26:40;102326.78;;;13.01;100.00
63006;BME280;53704;52.532;6.426;2023-06-05T07:29:06;102320.50;;;13.30;100.00
63006;BME280;53704;52.532;6.426;2023-06-05T07:31:31;102318.25;;;13.25;100.00
63006;BME280;53704;52.532;6.426;2023-06-05T07:33:56;102314.13;;;13.21;100.00
63006;BME280;53704;52.532;6.426;2023-06-05T07:36:22;102317.09;;;13.37;100.00
63006;BME280;53704;52.532;6.426;2023-06-05T07:38:47;102319.88;;;13.65;100.00
63006;BME280;53704;52.532;6.426;2023-06-05T07:41:13;102321.06;;;13.53;100.00
63006;BME280;53704;52.532;6.426;2023-06-05T07:43:39;102323.56;;;13.64;100.00
63006;BME280;53704;52.532;6.426;2023-06-05T07:46:07;102330.13;;;13.71;100.00
63006;BME280;53704;52.532;6.426;2023-06-05T07:48:35;102330.53;;;13.77;100.00
63006;BME280;53704;52.532;6.426;2023-06-05T07:51:00;102321.50;;;13.86;100.00
63006;BME280;53704;52.532;6.426;2023-06-05T07:53:26;102321.22;;;13.89;100.00
63006;BME280;53704;52.532;6.426;2023-06-05T07:55:51;102324.91;;;13.88;100.00
63006;BME280;53704;52.532;6.426;2023-06-05T07:58:18;102330.63;;;13.85;100.00
63006;BME280;53704;52.532;6.426;2023-06-05T08:00:43;102319.69;;;14.32;100.00
63006;BME280;53704;52.532;6.426;2023-06-05T08:03:14;102323.28;;;14.51;100.00
63006;BME280;53704;52.532;6.426;2023-06-05T08:05:48;102324.34;;;14.40;100.00
63006;BME280;53704;52.532;6.426;2023-06-05T08:08:13;102320.09;;;14.37;100.00
63006;BME280;53704;52.532;6.426;2023-06-05T08:10:40;102320.88;;;14.47;100.00
63006;BME280;53704;52.532;6.426;2023-06-05T08:13:09;102323.47;;;14.67;100.00
63006;BME280;53704;52.532;6.426;2023-06-05T08:15:35;102322.09;;;14.63;100.00
63006;BME280;53704;52.532;6.426;2023-06-05T08:18:01;102313.13;;;14.80;100.00
63006;BME280;53704;52.532;6.426;2023-06-05T08:20:27;102313.25;;;14.97;100.00
63006;BME280;53704;52.532;6.426;2023-06-05T08:22:54;102305.13;;;14.79;100.00
63006;BME280;53704;52.532;6.426;2023-06-05T08:25:23;102307.56;;;15.08;100.00
63006;BME280;53704;52.532;6.426;2023-06-05T08:27:49;102303.34;;;15.32;100.00
63006;BME280;53704;52.532;6.426;2023-06-05T08:30:16;102305.56;;;15.63;100.00
63006;BME280;53704;52.532;6.426;2023-06-05T08:32:41;102300.44;;;15.51;100.00
63006;BME280;53704;52.532;6.426;2023-06-05T08:35:08;102297.91;;;15.58;100.00
63006;BME280;53704;52.532;6.426;2023-06-05T08:37:34;102298.84;;;15.75;100.00
63006;BME280;53704;52.532;6.426;2023-06-05T08:39:59;102295.91;;;15.68;100.00
63006;BME280;53704;52.532;6.426;2023-06-05T08:42:31;102291.28;;;15.87;100.00
63006;BME280;53704;52.532;6.426;2023-06-05T08:44:56;102291.00;;;16.06;100.00
63006;BME280;53704;52.532;6.426;2023-06-05T08:47:22;102283.75;;;16.15;100.00
63006;BME280;53704;52.532;6.426;2023-06-05T08:49:52;102284.28;;;16.27;100.00
63006;BME280;53704;52.532;6.426;2023-06-05T08:52:22;102283.25;;;16.12;100.00
63006;BME280;53704;52.532;6.426;2023-06-05T08:54:48;102280.13;;;16.66;100.00
63006;BME280;53704;52.532;6.426;2023-06-05T08:57:14;102285.19;;;16.52;100.00
63006;BME280;53704;52.532;6.426;2023-06-05T08:59:40;102278.44;;;16.81;100.00
63006;BME280;53704;52.532;6.426;2023-06-05T09:02:06;102287.59;;;16.80;100.00
63006;BME280;53704;52.532;6.426;2023-06-05T09:04:32;102280.28;;;16.72;100.00
63006;BME280;53704;52.532;6.426;2023-06-05T09:06:58;102277.72;;;16.71;100.00
63006;BME280;53704;52.532;6.426;2023-06-05T09:09:25;102279.66;;;17.03;100.00
63006;BME280;53704;52.532;6.426;2023-06-05T09:12:11;102288.81;;;17.10;100.00
63006;BME280;53704;52.532;6.426;2023-06-05T09:14:37;102277.41;;;17.23;100.00
63006;BME280;53704;52.532;6.426;2023-06-05T09:17:03;102281.09;;;17.47;100.00
63006;BME280;53704;52.532;6.426;2023-06-05T09:19:36;102271.47;;;17.20;100.00
63006;BME280;53704;52.532;6.426;2023-06-05T09:22:02;102271.03;;;17.56;100.00
63006;BME280;53704;52.532;6.426;2023-06-05T09:24:28;102265.50;;;17.88;100.00
63006;BME280;53704;52.532;6.426;2023-06-05T09:29:31;102266.66;;;17.86;100.00
63006;BME280;53704;52.532;6.426;2023-06-05T09:31:59;102264.63;;;17.88;100.00
63006;BME280;53704;52.532;6.426;2023-06-05T09:34:33;102266.81;;;17.93;100.00
63006;BME280;53704;52.532;6.426;2023-06-05T09:37:00;102266.53;;;18.19;100.00
63006;BME280;53704;52.532;6.426;2023-06-05T09:39:27;102264.47;;;18.67;100.00
63006;BME280;53704;52.532;6.426;2023-06-05T09:41:55;102263.56;;;18.75;100.00
63006;BME280;53704;52.532;6.426;2023-06-05T09:44:21;102260.72;;;18.22;100.00
63006;BME280;53704;52.532;6.426;2023-06-05T09:49:20;102264.47;;;18.67;100.00
63006;BME280;53704;52.532;6.426;2023-06-05T09:51:47;102255.00;;;18.78;100.00
63006;BME280;53704;52.532;6.426;2023-06-05T09:54:13;102256.66;;;18.64;100.00
63006;BME280;53704;52.532;6.426;2023-06-05T09:56:48;102257.50;;;19.56;100.00
63006;BME280;53704;52.532;6.426;2023-06-05T09:59:20;102257.44;;;19.34;100.00
63006;BME280;53704;52.532;6.426;2023-06-05T10:01:50;102254.75;;;19.26;100.00
63006;BME280;53704;52.532;6.426;2023-06-05T10:04:20;102244.81;;;20.14;100.00
63006;BME280;53704;52.532;6.426;2023-06-05T10:06:47;102245.69;;;20.36;100.00
63006;BME280;53704;52.532;6.426;2023-06-05T10:09:14;102248.81;;;20.33;100.00
63006;BME280;53704;52.532;6.426;2023-06-05T10:11:40;102241.25;;;20.14;100.00
63006;BME280;53704;52.532;6.426;2023-06-05T10:14:09;102244.41;;;19.96;100.00
63006;BME280;53704;52.532;6.426;2023-06-05T10:16:35;102236.38;;;20.31;100.00
63006;BME280;53704;52.532;6.426;2023-06-05T10:19:02;102226.69;;;20.50;99.67
63006;BME280;53704;52.532;6.426;2023-06-05T10:21:28;102228.69;;;20.41;99.65
63006;BME280;53704;52.532;6.426;2023-06-05T10:24:07;102232.13;;;20.28;100.00
63006;BME280;53704;52.532;6.426;2023-06-05T10:32:20;102223.25;;;21.19;100.00
63006;BME280;53704;52.532;6.426;2023-06-05T10:40:20;102218.00;;;20.89;91.38
63006;BME280;53704;52.532;6.426;2023-06-05T10:42:45;102223.31;;;21.61;88.06
63006;BME280;53704;52.532;6.426;2023-06-05T10:45:11;102219.53;;;21.27;89.50
63006;BME280;53704;52.532;6.426;2023-06-05T10:52:44;102220.47;;;21.89;82.19
63006;BME280;53704;52.532;6.426;2023-06-05T10:55:11;102221.97;;;21.50;81.47
63006;BME280;53704;52.532;6.426;2023-06-05T11:00:27;102206.25;;;23.07;79.88
63006;BME280;53704;52.532;6.426;2023-06-05T11:02:53;102215.31;;;22.34;80.92
63006;BME280;53704;52.532;6.426;2023-06-05T11:05:19;102205.66;;;22.52;78.84
63006;BME280;53704;52.532;6.426;2023-06-05T11:07:45;102203.69;;;22.19;76.10
63006;BME280;53704;52.532;6.426;2023-06-05T11:10:11;102196.06;;;22.08;76.22
63006;BME280;53704;52.532;6.426;2023-06-05T11:17:48;102198.88;;;22.34;75.86
63006;BME280;53704;52.532;6.426;2023-06-05T11:23:08;102191.38;;;23.48;72.69
63006;BME280;53704;52.532;6.426;2023-06-05T11:25:34;102192.78;;;23.64;69.55
63006;BME280;53704;52.532;6.426;2023-06-05T11:28:03;102195.84;;;23.36;67.91
63006;BME280;53704;52.532;6.426;2023-06-05T11:30:44;102191.47;;;22.95;67.83
63006;BME280;53704;52.532;6.426;2023-06-05T11:33:15;102190.53;;;23.41;71.20
63006;BME280;53704;52.532;6.426;2023-06-05T11:35:42;102186.00;;;22.68;67.32
63006;BME280;53704;52.532;6.426;2023-06-05T11:38:16;102193.19;;;22.63;66.77
63006;BME280;53704;52.532;6.426;2023-06-05T11:40:43;102190.31;;;23.49;66.12
63006;BME280;53704;52.532;6.426;2023-06-05T11:43:10;102181.19;;;23.56;63.19
63006;BME280;53704;52.532;6.426;2023-06-05T11:45:37;102177.63;;;23.48;64.47
63006;BME280;53704;52.532;6.426;2023-06-05T11:48:07;102175.34;;;24.23;65.13
63006;BME280;53704;52.532;6.426;2023-06-05T11:50:33;102170.84;;;23.51;60.20
63006;BME280;53704;52.532;6.426;2023-06-05T11:53:05;102175.78;;;23.29;62.36
63006;BME280;53704;52.532;6.426;2023-06-05T11:55:32;102172.03;;;23.69;62.78
63006;BME280;53704;52.532;6.426;2023-06-05T11:58:25;102174.94;;;24.76;60.70
63006;BME280;53704;52.532;6.426;2023-06-05T12:00:53;102176.25;;;24.16;63.20
63006;BME280;53704;52.532;6.426;2023-06-05T12:03:28;102174.31;;;23.85;59.46
63006;BME280;53704;52.532;6.426;2023-06-05T12:05:54;102179.19;;;23.24;60.12
63006;BME280;53704;52.532;6.426;2023-06-05T12:08:23;102160.75;;;24.98;59.18
63006;BME280;53704;52.532;6.426;2023-06-05T12:10:53;102171.22;;;24.07;55.57
63006;BME280;53704;52.532;6.426;2023-06-05T12:13:19;102167.56;;;24.70;55.28
63006;BME280;53704;52.532;6.426;2023-06-05T12:16:00;102162.09;;;24.38;57.50
63006;BME280;53704;52.532;6.426;2023-06-05T12:18:33;102152.91;;;25.69;54.44
63006;BME280;53704;52.532;6.426;2023-06-05T12:20:59;102158.47;;;25.13;54.17
63006;BME280;53704;52.532;6.426;2023-06-05T12:23:25;102153.31;;;24.80;54.64
63006;BME280;53704;52.532;6.426;2023-06-05T12:26:00;102144.22;;;25.53;52.46
63006;BME280;53704;52.532;6.426;2023-06-05T12:28:27;102147.44;;;24.44;53.42
63006;BME280;53704;52.532;6.426;2023-06-05T12:30:53;102150.56;;;24.80;54.14
63006;BME280;53704;52.532;6.426;2023-06-05T12:33:19;102144.38;;;24.84;55.17
63006;BME280;53704;52.532;6.426;2023-06-05T12:35:46;102143.84;;;24.94;54.81
63006;BME280;53704;52.532;6.426;2023-06-05T12:38:11;102142.91;;;25.56;55.95
63006;BME280;53704;52.532;6.426;2023-06-05T12:40:37;102145.66;;;25.86;52.02
63006;BME280;53704;52.532;6.426;2023-06-05T12:43:02;102139.16;;;25.32;53.71
63006;BME280;53704;52.532;6.426;2023-06-05T12:45:28;102133.94;;;26.33;54.15
63006;BME280;53704;52.532;6.426;2023-06-05T12:47:55;102144.41;;;26.00;51.89
63006;BME280;53704;52.532;6.426;2023-06-05T12:50:21;102132.00;;;25.91;52.14
63006;BME280;53704;52.532;6.426;2023-06-05T12:52:47;102135.34;;;25.93;51.84
63006;BME280;53704;52.532;6.426;2023-06-05T12:55:12;102125.63;;;26.09;49.33
63006;BME280;53704;52.532;6.426;2023-06-05T12:57:38;102128.00;;;26.06;49.22
63006;BME280;53704;52.532;6.426;2023-06-05T13:00:05;102124.56;;;26.34;50.50
63006;BME280;53704;52.532;6.426;2023-06-05T13:02:44;102126.41;;;26.52;51.28
63006;BME280;53704;52.532;6.426;2023-06-05T13:05:10;102133.09;;;27.03;49.30
63006;BME280;53704;52.532;6.426;2023-06-05T13:07:37;102118.63;;;27.25;48.46
63006;BME280;53704;52.532;6.426;2023-06-05T13:10:04;102123.34;;;27.13;49.83
63006;BME280;53704;52.532;6.426;2023-06-05T13:12:30;102118.59;;;27.49;49.90
63006;BME280;53704;52.532;6.426;2023-06-05T13:14:56;102117.41;;;26.68;46.42
63006;BME280;53704;52.532;6.426;2023-06-05T13:17:22;102109.53;;;27.01;46.33
63006;BME280;53704;52.532;6.426;2023-06-05T13:19:50;102104.41;;;26.33;47.35
63006;BME280;53704;52.532;6.426;2023-06-05T13:22:16;102103.81;;;27.43;47.32